sensor_id;sensor_type;location;lat;lon;timestamp;P1;P2;P0
61760;PMS5003;47664;51.660;-0.100;2023-07-09T00:00:56;8;8;
61760;PMS5003;47664;51.660;-0.100;2023-07-09T00:03:23;9;7;
61760;PMS5003;47664;51.660;-0.100;2023-07-09T00:05:50;8;6;
61760;PMS5003;47664;51.660;-0.100;2023-07-09T00:08:24;7;5;
61760;PMS5003;47664;51.660;-0.100;2023-07-09T00:10:53;6;4;
61760;PMS5003;47664;51.660;-0.100;2023-07-09T00:13:21;7;6;
61760;PMS5003;47664;51.660;-0.100;2023-07-09T00:15:49;7;5;
61760;PMS5003;47664;51.660;-0.100;2023-07-09T00:18:16;7;6;
61760;PMS5003;47664;51.660;-0.100;2023-07-09T00:20:43;7;6;
61760;PMS5003;47664;51.660;-0.100;2023-07-09T00:23:10;8;6;
61760;PMS5003;47664;51.660;-0.100;2023-07-09T00:25:37;7;7;
61760;PMS5003;47664;51.660;-0.100;2023-07-09T00:28:05;13;7;
61760;PMS5003;47664;51.660;-0.100;2023-07-09T00:30:34;8;6;
61760;PMS5003;47664;51.660;-0.100;2023-07-09T00:33:01;7;6;
61760;PMS5003;47664;51.660;-0.100;2023-07-09T00:35:28;6;6;
61760;PMS5003;47664;51.660;-0.100;2023-07-09T00:37:55;9;7;
61760;PMS5003;47664;51.660;-0.100;2023-07-09T00:40:22;9;6;
61760;PMS5003;47664;51.660;-0.100;2023-07-09T00:42:50;8;7;
61760;PMS5003;47664;51.660;-0.100;2023-07-09T00:45:20;6;6;
61760;PMS5003;47664;51.660;-0.100;2023-07-09T00:47:52;6;6;
61760;PMS5003;47664;51.660;-0.100;2023-07-09T00:50:29;10;7;
61760;PMS5003;47664;51.660;-0.100;2023-07-09T00:53:01;9;8;
61760;PMS5003;47664;51.660;-0.100;2023-07-09T00:55:31;9;8;
61760;PMS5003;47664;51.660;-0.100;2023-07-09T00:58:03;6;6;
61760;PMS5003;47664;51.660;-0.100;2023-07-09T01:00:37;10;8;
61760;PMS5003;47664;51.660;-0.100;2023-07-09T01:03:08;11;9;
61760;PMS5003;47664;51.660;-0.100;2023-07-09T01:05:36;11;6;
61760;PMS5003;47664;51.660;-0.100;2023-07-09T01:08:05;5;5;
61760;PMS5003;47664;51.660;-0.100;2023-07-09T01:10:33;9;8;
61760;PMS5003;47664;51.660;-0.100;2023-07-09T01:13:01;12;11;
61760;PMS5003;47664;51.660;-0.100;2023-07-09T01:15:28;6;6;
61760;PMS5003;47664;51.660;-0.100;2023-07-09T01:17:55;9;9;
61760;PMS5003;47664;51.660;-0.100;2023-07-09T01:20:22;11;10;
61760;PMS5003;47664;51.660;-0.100;2023-07-09T01:22:49;11;8;
61760;PMS5003;47664;51.660;-0.100;2023-07-09T01:25:17;8;7;
61760;PMS5003;47664;51.660;-0.100;2023-07-09T01:27:45;8;6;
61760;PMS5003;47664;51.660;-0.100;2023-07-09T01:30:15;10;8;
61760;PMS5003;47664;51.660;-0.100;2023-07-09T01:32:44;7;7;
61760;PMS5003;47664;51.660;-0.100;2023-07-09T01:35:11;12;11;
61760;PMS5003;47664;51.660;-0.100;2023-07-09T01:37:41;7;6;
61760;PMS5003;47664;51.660;-0.100;2023-07-09T01:40:10;9;9;
61760;PMS5003;47664;51.660;-0.100;2023-07-09T01:42:39;10;8;
61760;PMS5003;47664;51.660;-0.100;2023-07-09T01:45:07;10;8;
61760;PMS5003;47664;51.660;-0.100;2023-07-09T01:47:35;8;7;
61760;PMS5003;47664;51.660;-0.100;2023-07-09T01:50:04;9;7;
61760;PMS5003;47664;51.660;-0.100;2023-07-09T01:52:33;9;9;
61760;PMS5003;47664;51.660;-0.100;2023-07-09T01:55:01;12;9;
61760;PMS5003;47664;51.660;-0.100;2023-07-09T01:57:29;9;9;
61760;PMS5003;47664;51.660;-0.100;2023-07-09T01:59:57;9;7;
61760;PMS5003;47664;51.660;-0.100;2023-07-09T02:02:24;6;6;
61760;PMS5003;47664;51.660;-0.100;2023-07-09T02:04:51;10;7;
61760;PMS5003;47664;51.660;-0.100;2023-07-09T02:07:20;7;6;
61760;PMS5003;47664;51.660;-0.100;2023-07-09T02:09:49;11;11;
61760;PMS5003;47664;51.660;-0.100;2023-07-09T02:12:17;7;5;
61760;PMS5003;47664;51.660;-0.100;2023-07-09T02:14:45;10;7;
61760;PMS5003;47664;51.660;-0.100;2023-07-09T02:17:13;9;6;
61760;PMS5003;47664;51.660;-0.100;2023-07-09T02:19:41;9;6;
61760;PMS5003;47664;51.660;-0.100;2023-07-09T02:22:09;7;4;
61760;PMS5003;47664;51.660;-0.100;2023-07-09T02:24:37;9;7;
61760;PMS5003;47664;51.660;-0.100;2023-07-09T02:27:05;4;4;
61760;PMS5003;47664;51.660;-0.100;2023-07-09T02:29:34;4;4;
61760;PMS5003;47664;51.660;-0.100;2023-07-09T02:32:01;8;5;
61760;PMS5003;47664;51.660;-0.100;2023-07-09T02:34:29;7;5;
61760;PMS5003;47664;51.660;-0.100;2023-07-09T02:36:58;6;6;
61760;PMS5003;47664;51.660;-0.100;2023-07-09T02:39:26;6;6;
61760;PMS5003;47664;51.660;-0.100;2023-07-09T02:41:53;4;4;
61760;PMS5003;47664;51.660;-0.100;2023-07-09T02:44:20;6;4;
61760;PMS5003;47664;51.660;-0.100;2023-07-09T02:46:47;5;4;
61760;PMS5003;47664;51.660;-0.100;2023-07-09T02:49:14;8;5;
61760;PMS5003;47664;51.660;-0.100;2023-07-09T02:51:42;5;5;
61760;PMS5003;47664;51.660;-0.100;2023-07-09T02:54:09;3;3;
61760;PMS5003;47664;51.660;-0.100;2023-07-09T02:56:36;4;4;
61760;PMS5003;47664;51.660;-0.100;2023-07-09T02:59:03;8;7;
61760;PMS5003;47664;51.660;-0.100;2023-07-09T03:01:30;4;4;
61760;PMS5003;47664;51.660;-0.100;2023-07-09T03:03:57;5;5;
61760;PMS5003;47664;51.660;-0.100;2023-07-09T03:06:24;3;3;
61760;PMS5003;47664;51.660;-0.100;2023-07-09T03:08:52;9;6;
61760;PMS5003;47664;51.660;-0.100;2023-07-09T03:11:20;5;5;
61760;PMS5003;47664;51.660;-0.100;2023-07-09T03:13:48;4;4;
61760;PMS5003;47664;51.660;-0.100;2023-07-09T03:16:15;5;5;
61760;PMS5003;47664;51.660;-0.100;2023-07-09T03:18:42;6;6;
61760;PMS5003;47664;51.660;-0.100;2023-07-09T03:21:09;7;5;
61760;PMS5003;47664;51.660;-0.100;2023-07-09T03:23:36;4;4;
61760;PMS5003;47664;51.660;-0.100;2023-07-09T03:26:04;7;5;
61760;PMS5003;47664;51.660;-0.100;2023-07-09T03:28:31;8;4;
61760;PMS5003;47664;51.660;-0.100;2023-07-09T03:30:59;2;2;
61760;PMS5003;47664;51.660;-0.100;2023-07-09T03:33:26;5;5;
61760;PMS5003;47664;51.660;-0.100;2023-07-09T03:35:53;5;5;
61760;PMS5003;47664;51.660;-0.100;2023-07-09T03:38:20;6;5;
61760;PMS5003;47664;51.660;-0.100;2023-07-09T03:40:49;6;5;
61760;PMS5003;47664;51.660;-0.100;2023-07-09T03:43:17;5;5;
61760;PMS5003;47664;51.660;-0.100;2023-07-09T03:45:45;5;4;
61760;PMS5003;47664;51.660;-0.100;2023-07-09T03:48:14;6;5;
61760;PMS5003;47664;51.660;-0.100;2023-07-09T03:50:43;5;3;
61760;PMS5003;47664;51.660;-0.100;2023-07-09T03:53:11;5;5;
61760;PMS5003;47664;51.660;-0.100;2023-07-09T03:55:39;6;5;
61760;PMS5003;47664;51.660;-0.100;2023-07-09T03:58:07;4;4;
61760;PMS5003;47664;51.660;-0.100;2023-07-09T04:00:34;4;2;
61760;PMS5003;47664;51.660;-0.100;2023-07-09T04:03:01;5;5;
61760;PMS5003;47664;51.660;-0.100;2023-07-09T04:05:28;6;5;
61760;PMS5003;47664;51.660;-0.100;2023-07-09T04:07:56;6;4;
61760;PMS5003;47664;51.660;-0.100;2023-07-09T04:10:23;4;4;
61760;PMS5003;47664;51.660;-0.100;2023-07-09T04:12:50;6;4;
61760;PMS5003;47664;51.660;-0.100;2023-07-09T04:15:17;4;4;
61760;PMS5003;47664;51.660;-0.100;2023-07-09T04:17:43;6;4;
61760;PMS5003;47664;51.660;-0.100;2023-07-09T04:20:11;7;4;
61760;PMS5003;47664;51.660;-0.100;2023-07-09T04:22:38;5;3;
61760;PMS5003;47664;51.660;-0.100;2023-07-09T04:25:06;8;5;
61760;PMS5003;47664;51.660;-0.100;2023-07-09T04:27:35;5;4;
61760;PMS5003;47664;51.660;-0.100;2023-07-09T04:30:02;4;4;
61760;PMS5003;47664;51.660;-0.100;2023-07-09T04:32:31;8;5;
61760;PMS5003;47664;51.660;-0.100;2023-07-09T04:34:58;4;4;
61760;PMS5003;47664;51.660;-0.100;2023-07-09T04:37:25;10;6;
61760;PMS5003;47664;51.660;-0.100;2023-07-09T04:39:51;4;4;
61760;PMS5003;47664;51.660;-0.100;2023-07-09T04:42:18;4;2;
61760;PMS5003;47664;51.660;-0.100;2023-07-09T04:44:45;4;4;
61760;PMS5003;47664;51.660;-0.100;2023-07-09T04:47:12;5;4;
61760;PMS5003;47664;51.660;-0.100;2023-07-09T04:49:39;7;6;
61760;PMS5003;47664;51.660;-0.100;2023-07-09T04:52:06;4;4;
61760;PMS5003;47664;51.660;-0.100;2023-07-09T04:54:34;4;4;
61760;PMS5003;47664;51.660;-0.100;2023-07-09T04:57:01;2;2;
61760;PMS5003;47664;51.660;-0.100;2023-07-09T04:59:29;3;3;
61760;PMS5003;47664;51.660;-0.100;2023-07-09T05:01:57;4;4;
61760;PMS5003;47664;51.660;-0.100;2023-07-09T05:04:25;3;3;
61760;PMS5003;47664;51.660;-0.100;2023-07-09T05:06:51;4;3;
61760;PMS5003;47664;51.660;-0.100;2023-07-09T05:09:18;3;2;
61760;PMS5003;47664;51.660;-0.100;2023-07-09T05:11:46;5;5;
61760;PMS5003;47664;51.660;-0.100;2023-07-09T05:14:13;2;2;
61760;PMS5003;47664;51.660;-0.100;2023-07-09T05:16:40;7;5;
61760;PMS5003;47664;51.660;-0.100;2023-07-09T05:19:08;3;2;
61760;PMS5003;47664;51.660;-0.100;2023-07-09T05:21:34;4;3;
61760;PMS5003;47664;51.660;-0.100;2023-07-09T05:24:01;3;3;
61760;PMS5003;47664;51.660;-0.100;2023-07-09T05:26:29;2;2;
61760;PMS5003;47664;51.660;-0.100;2023-07-09T05:28:56;3;3;
61760;PMS5003;47664;51.660;-0.100;2023-07-09T05:31:23;6;4;
61760;PMS5003;47664;51.660;-0.100;2023-07-09T05:33:50;3;3;
61760;PMS5003;47664;51.660;-0.100;2023-07-09T05:36:17;5;3;
61760;PMS5003;47664;51.660;-0.100;2023-07-09T05:38:44;2;2;
61760;PMS5003;47664;51.660;-0.100;2023-07-09T05:41:12;3;3;
61760;PMS5003;47664;51.660;-0.100;2023-07-09T05:43:39;3;3;
61760;PMS5003;47664;51.660;-0.100;2023-07-09T05:46:05;3;3;
61760;PMS5003;47664;51.660;-0.100;2023-07-09T05:48:33;7;4;
61760;PMS5003;47664;51.660;-0.100;2023-07-09T05:51:00;3;1;
61760;PMS5003;47664;51.660;-0.100;2023-07-09T05:53:27;5;2;
61760;PMS5003;47664;51.660;-0.100;2023-07-09T05:55:54;3;3;
61760;PMS5003;47664;51.660;-0.100;2023-07-09T05:58:22;6;2;
61760;PMS5003;47664;51.660;-0.100;2023-07-09T06:00:49;3;3;
61760;PMS5003;47664;51.660;-0.100;2023-07-09T06:03:17;7;4;
61760;PMS5003;47664;51.660;-0.100;2023-07-09T06:05:44;4;4;
61760;PMS5003;47664;51.660;-0.100;2023-07-09T06:08:11;3;3;
61760;PMS5003;47664;51.660;-0.100;2023-07-09T06:10:38;3;3;
61760;PMS5003;47664;51.660;-0.100;2023-07-09T06:13:05;5;5;
61760;PMS5003;47664;51.660;-0.100;2023-07-09T06:15:33;4;4;
61760;PMS5003;47664;51.660;-0.100;2023-07-09T06:18:00;7;3;
61760;PMS5003;47664;51.660;-0.100;2023-07-09T06:20:26;5;3;
61760;PMS5003;47664;51.660;-0.100;2023-07-09T06:22:53;6;4;
61760;PMS5003;47664;51.660;-0.100;2023-07-09T06:25:21;8;8;
61760;PMS5003;47664;51.660;-0.100;2023-07-09T06:27:48;5;5;
61760;PMS5003;47664;51.660;-0.100;2023-07-09T06:30:14;7;6;
61760;PMS5003;47664;51.660;-0.100;2023-07-09T06:32:41;5;5;
61760;PMS5003;47664;51.660;-0.100;2023-07-09T06:35:08;6;6;
61760;PMS5003;47664;51.660;-0.100;2023-07-09T06:37:35;4;4;
61760;PMS5003;47664;51.660;-0.100;2023-07-09T06:40:03;8;5;
61760;PMS5003;47664;51.660;-0.100;2023-07-09T06:42:30;4;4;
61760;PMS5003;47664;51.660;-0.100;2023-07-09T06:44:57;7;5;
61760;PMS5003;47664;51.660;-0.100;2023-07-09T06:47:24;4;4;
61760;PMS5003;47664;51.660;-0.100;2023-07-09T06:49:51;6;6;
61760;PMS5003;47664;51.660;-0.100;2023-07-09T06:52:18;6;5;
61760;PMS5003;47664;51.660;-0.100;2023-07-09T06:54:45;7;4;
61760;PMS5003;47664;51.660;-0.100;2023-07-09T06:57:12;4;3;
61760;PMS5003;47664;51.660;-0.100;2023-07-09T06:59:39;3;3;
61760;PMS5003;47664;51.660;-0.100;2023-07-09T07:02:06;2;2;
61760;PMS5003;47664;51.660;-0.100;2023-07-09T07:04:34;3;2;
61760;PMS5003;47664;51.660;-0.100;2023-07-09T07:07:01;7;4;
61760;PMS5003;47664;51.660;-0.100;2023-07-09T07:09:28;5;5;
61760;PMS5003;47664;51.660;-0.100;2023-07-09T07:11:55;3;3;
61760;PMS5003;47664;51.660;-0.100;2023-07-09T07:14:22;9;4;
61760;PMS5003;47664;51.660;-0.100;2023-07-09T07:16:49;8;8;
61760;PMS5003;47664;51.660;-0.100;2023-07-09T07:19:17;3;3;
61760;PMS5003;47664;51.660;-0.100;2023-07-09T07:21:44;9;3;
61760;PMS5003;47664;51.660;-0.100;2023-07-09T07:24:10;5;5;
61760;PMS5003;47664;51.660;-0.100;2023-07-09T07:26:38;3;3;
61760;PMS5003;47664;51.660;-0.100;2023-07-09T07:29:05;6;5;
61760;PMS5003;47664;51.660;-0.100;2023-07-09T07:31:33;4;4;
61760;PMS5003;47664;51.660;-0.100;2023-07-09T07:34:00;5;3;
61760;PMS5003;47664;51.660;-0.100;2023-07-09T07:36:26;4;2;
61760;PMS5003;47664;51.660;-0.100;2023-07-09T07:38:53;4;3;
61760;PMS5003;47664;51.660;-0.100;2023-07-09T07:41:20;6;3;
61760;PMS5003;47664;51.660;-0.100;2023-07-09T07:43:47;6;6;
61760;PMS5003;47664;51.660;-0.100;2023-07-09T07:46:14;4;4;
61760;PMS5003;47664;51.660;-0.100;2023-07-09T07:48:41;8;3;
61760;PMS5003;47664;51.660;-0.100;2023-07-09T07:51:08;5;4;
61760;PMS5003;47664;51.660;-0.100;2023-07-09T07:53:36;7;2;
61760;PMS5003;47664;51.660;-0.100;2023-07-09T07:56:03;3;3;
61760;PMS5003;47664;51.660;-0.100;2023-07-09T07:58:30;2;2;
61760;PMS5003;47664;51.660;-0.100;2023-07-09T08:00:57;4;4;
61760;PMS5003;47664;51.660;-0.100;2023-07-09T08:03:25;6;4;
61760;PMS5003;47664;51.660;-0.100;2023-07-09T08:05:52;4;4;
61760;PMS5003;47664;51.660;-0.100;2023-07-09T08:08:20;4;4;
61760;PMS5003;47664;51.660;-0.100;2023-07-09T08:10:48;6;5;
61760;PMS5003;47664;51.660;-0.100;2023-07-09T08:13:16;5;5;
61760;PMS5003;47664;51.660;-0.100;2023-07-09T08:15:42;5;5;
61760;PMS5003;47664;51.660;-0.100;2023-07-09T08:18:09;5;3;
61760;PMS5003;47664;51.660;-0.100;2023-07-09T08:20:36;6;4;
61760;PMS5003;47664;51.660;-0.100;2023-07-09T08:23:03;5;4;
61760;PMS5003;47664;51.660;-0.100;2023-07-09T08:25:31;6;5;
61760;PMS5003;47664;51.660;-0.100;2023-07-09T08:27:58;10;3;
61760;PMS5003;47664;51.660;-0.100;2023-07-09T08:30:25;6;3;
61760;PMS5003;47664;51.660;-0.100;2023-07-09T08:32:53;5;5;
61760;PMS5003;47664;51.660;-0.100;2023-07-09T08:35:20;7;4;
61760;PMS5003;47664;51.660;-0.100;2023-07-09T08:37:46;8;4;
61760;PMS5003;47664;51.660;-0.100;2023-07-09T08:40:15;4;4;
61760;PMS5003;47664;51.660;-0.100;2023-07-09T08:42:44;3;2;
61760;PMS5003;47664;51.660;-0.100;2023-07-09T08:45:17;3;3;
61760;PMS5003;47664;51.660;-0.100;2023-07-09T08:47:57;3;3;
61760;PMS5003;47664;51.660;-0.100;2023-07-09T08:50:29;6;4;
61760;PMS5003;47664;51.660;-0.100;2023-07-09T08:53:02;7;4;
61760;PMS5003;47664;51.660;-0.100;2023-07-09T08:55:31;4;2;
61760;PMS5003;47664;51.660;-0.100;2023-07-09T08:58:00;5;2;
61760;PMS5003;47664;51.660;-0.100;2023-07-09T09:00:31;4;1;
61760;PMS5003;47664;51.660;-0.100;2023-07-09T09:03:05;6;4;
61760;PMS5003;47664;51.660;-0.100;2023-07-09T09:05:39;8;5;
61760;PMS5003;47664;51.660;-0.100;2023-07-09T09:08:19;6;3;
61760;PMS5003;47664;51.660;-0.100;2023-07-09T09:10:57;5;2;
61760;PMS5003;47664;51.660;-0.100;2023-07-09T09:13:30;1;1;
61760;PMS5003;47664;51.660;-0.100;2023-07-09T09:15:59;6;2;
61760;PMS5003;47664;51.660;-0.100;2023-07-09T09:18:34;5;2;
61760;PMS5003;47664;51.660;-0.100;2023-07-09T09:21:07;6;2;
61760;PMS5003;47664;51.660;-0.100;2023-07-09T09:23:44;4;2;
61760;PMS5003;47664;51.660;-0.100;2023-07-09T09:26:16;5;3;
61760;PMS5003;47664;51.660;-0.100;2023-07-09T09:28:48;1;1;
61760;PMS5003;47664;51.660;-0.100;2023-07-09T09:31:16;3;3;
61760;PMS5003;47664;51.660;-0.100;2023-07-09T09:33:44;5;2;
61760;PMS5003;47664;51.660;-0.100;2023-07-09T09:36:14;1;1;
61760;PMS5003;47664;51.660;-0.100;2023-07-09T09:38:43;7;2;
61760;PMS5003;47664;51.660;-0.100;2023-07-09T09:41:13;1;1;
61760;PMS5003;47664;51.660;-0.100;2023-07-09T09:43:42;1;1;
61760;PMS5003;47664;51.660;-0.100;2023-07-09T09:46:15;3;2;
61760;PMS5003;47664;51.660;-0.100;2023-07-09T09:48:45;1;1;
61760;PMS5003;47664;51.660;-0.100;2023-07-09T09:51:14;2;1;
61760;PMS5003;47664;51.660;-0.100;2023-07-09T09:53:45;4;1;
61760;PMS5003;47664;51.660;-0.100;2023-07-09T09:56:28;7;1;
61760;PMS5003;47664;51.660;-0.100;2023-07-09T09:58:57;4;2;
61760;PMS5003;47664;51.660;-0.100;2023-07-09T10:01:26;2;0;
61760;PMS5003;47664;51.660;-0.100;2023-07-09T10:03:55;1;1;
61760;PMS5003;47664;51.660;-0.100;2023-07-09T10:06:25;0;0;
61760;PMS5003;47664;51.660;-0.100;2023-07-09T10:09:00;3;3;
61760;PMS5003;47664;51.660;-0.100;2023-07-09T10:11:42;4;1;
61760;PMS5003;47664;51.660;-0.100;2023-07-09T10:14:18;3;1;
61760;PMS5003;47664;51.660;-0.100;2023-07-09T10:16:58;2;1;
61760;PMS5003;47664;51.660;-0.100;2023-07-09T10:19:32;2;2;
61760;PMS5003;47664;51.660;-0.100;2023-07-09T10:22:06;8;7;
61760;PMS5003;47664;51.660;-0.100;2023-07-09T10:24:43;3;2;
61760;PMS5003;47664;51.660;-0.100;2023-07-09T10:27:18;4;2;
61760;PMS5003;47664;51.660;-0.100;2023-07-09T10:29:56;2;0;
61760;PMS5003;47664;51.660;-0.100;2023-07-09T10:32:47;1;1;
61760;PMS5003;47664;51.660;-0.100;2023-07-09T10:35:26;5;2;
61760;PMS5003;47664;51.660;-0.100;2023-07-09T10:38:06;1;1;
61760;PMS5003;47664;51.660;-0.100;2023-07-09T10:40:43;2;2;
61760;PMS5003;47664;51.660;-0.100;2023-07-09T10:43:14;2;2;
61760;PMS5003;47664;51.660;-0.100;2023-07-09T10:45:47;2;2;
61760;PMS5003;47664;51.660;-0.100;2023-07-09T10:48:23;0;0;
61760;PMS5003;47664;51.660;-0.100;2023-07-09T10:51:00;3;1;
61760;PMS5003;47664;51.660;-0.100;2023-07-09T10:53:28;1;1;
61760;PMS5003;47664;51.660;-0.100;2023-07-09T10:56:01;3;1;
61760;PMS5003;47664;51.660;-0.100;2023-07-09T10:58:34;4;1;
61760;PMS5003;47664;51.660;-0.100;2023-07-09T11:01:06;2;2;
61760;PMS5003;47664;51.660;-0.100;2023-07-09T11:03:36;0;0;
61760;PMS5003;47664;51.660;-0.100;2023-07-09T11:06:09;2;2;
61760;PMS5003;47664;51.660;-0.100;2023-07-09T11:08:43;2;1;
61760;PMS5003;47664;51.660;-0.100;2023-07-09T11:11:15;2;1;
61760;PMS5003;47664;51.660;-0.100;2023-07-09T11:13:50;1;1;
61760;PMS5003;47664;51.660;-0.100;2023-07-09T11:16:24;1;1;
61760;PMS5003;47664;51.660;-0.100;2023-07-09T11:18:58;2;2;
61760;PMS5003;47664;51.660;-0.100;2023-07-09T11:21:27;2;2;
61760;PMS5003;47664;51.660;-0.100;2023-07-09T11:23:56;4;2;
61760;PMS5003;47664;51.660;-0.100;2023-07-09T11:26:25;1;1;
61760;PMS5003;47664;51.660;-0.100;2023-07-09T11:28:54;4;2;
61760;PMS5003;47664;51.660;-0.100;2023-07-09T11:31:36;5;1;
61760;PMS5003;47664;51.660;-0.100;2023-07-09T11:34:07;3;1;
61760;PMS5003;47664;51.660;-0.100;2023-07-09T11:36:46;2;0;
61760;PMS5003;47664;51.660;-0.100;2023-07-09T11:39:17;1;1;
61760;PMS5003;47664;51.660;-0.100;2023-07-09T11:41:47;1;1;
61760;PMS5003;47664;51.660;-0.100;2023-07-09T11:44:16;5;2;
61760;PMS5003;47664;51.660;-0.100;2023-07-09T11:46:49;3;1;
61760;PMS5003;47664;51.660;-0.100;2023-07-09T11:49:21;3;1;
61760;PMS5003;47664;51.660;-0.100;2023-07-09T11:51:53;2;2;
61760;PMS5003;47664;51.660;-0.100;2023-07-09T11:54:24;2;1;
61760;PMS5003;47664;51.660;-0.100;2023-07-09T11:56:53;3;1;
61760;PMS5003;47664;51.660;-0.100;2023-07-09T11:59:22;1;0;
61760;PMS5003;47664;51.660;-0.100;2023-07-09T12:01:50;4;1;
61760;PMS5003;47664;51.660;-0.100;2023-07-09T12:04:18;0;0;
61760;PMS5003;47664;51.660;-0.100;2023-07-09T12:06:47;3;2;
61760;PMS5003;47664;51.660;-0.100;2023-07-09T12:09:17;3;2;
61760;PMS5003;47664;51.660;-0.100;2023-07-09T12:11:45;1;1;
61760;PMS5003;47664;51.660;-0.100;2023-07-09T12:14:16;2;1;
61760;PMS5003;47664;51.660;-0.100;2023-07-09T12:16:44;2;2;
61760;PMS5003;47664;51.660;-0.100;2023-07-09T12:19:13;2;1;
61760;PMS5003;47664;51.660;-0.100;2023-07-09T12:21:44;2;1;
61760;PMS5003;47664;51.660;-0.100;2023-07-09T12:24:17;1;1;
61760;PMS5003;47664;51.660;-0.100;2023-07-09T12:26:47;2;0;
61760;PMS5003;47664;51.660;-0.100;2023-07-09T12:29:16;1;1;
61760;PMS5003;47664;51.660;-0.100;2023-07-09T12:31:42;5;3;
61760;PMS5003;47664;51.660;-0.100;2023-07-09T12:34:11;1;1;
61760;PMS5003;47664;51.660;-0.100;2023-07-09T12:36:41;0;0;
61760;PMS5003;47664;51.660;-0.100;2023-07-09T12:39:13;4;2;
61760;PMS5003;47664;51.660;-0.100;2023-07-09T12:41:44;5;5;
61760;PMS5003;47664;51.660;-0.100;2023-07-09T12:44:15;3;1;
61760;PMS5003;47664;51.660;-0.100;2023-07-09T12:46:44;1;0;
61760;PMS5003;47664;51.660;-0.100;2023-07-09T12:49:20;3;1;
61760;PMS5003;47664;51.660;-0.100;2023-07-09T12:51:49;1;1;
61760;PMS5003;47664;51.660;-0.100;2023-07-09T12:54:17;2;2;
61760;PMS5003;47664;51.660;-0.100;2023-07-09T12:56:46;2;1;
61760;PMS5003;47664;51.660;-0.100;2023-07-09T12:59:17;3;2;
61760;PMS5003;47664;51.660;-0.100;2023-07-09T13:01:49;1;1;
61760;PMS5003;47664;51.660;-0.100;2023-07-09T13:04:26;3;1;
61760;PMS5003;47664;51.660;-0.100;2023-07-09T13:06:55;3;0;
61760;PMS5003;47664;51.660;-0.100;2023-07-09T13:09:22;2;1;
61760;PMS5003;47664;51.660;-0.100;2023-07-09T13:11:49;1;1;
61760;PMS5003;47664;51.660;-0.100;2023-07-09T13:14:18;1;1;
61760;PMS5003;47664;51.660;-0.100;2023-07-09T13:16:47;1;1;
61760;PMS5003;47664;51.660;-0.100;2023-07-09T13:19:15;4;1;
61760;PMS5003;47664;51.660;-0.100;2023-07-09T13:21:43;1;1;
61760;PMS5003;47664;51.660;-0.100;2023-07-09T13:24:12;1;1;
61760;PMS5003;47664;51.660;-0.100;2023-07-09T13:26:42;0;0;
61760;PMS5003;47664;51.660;-0.100;2023-07-09T13:29:12;2;1;
61760;PMS5003;47664;51.660;-0.100;2023-07-09T13:31:40;2;1;
61760;PMS5003;47664;51.660;-0.100;2023-07-09T13:34:10;1;1;
61760;PMS5003;47664;51.660;-0.100;2023-07-09T13:36:45;1;1;
61760;PMS5003;47664;51.660;-0.100;2023-07-09T13:39:13;3;1;
61760;PMS5003;47664;51.660;-0.100;2023-07-09T13:41:42;3;1;
61760;PMS5003;47664;51.660;-0.100;2023-07-09T13:44:12;2;2;
61760;PMS5003;47664;51.660;-0.100;2023-07-09T13:46:40;2;1;
61760;PMS5003;47664;51.660;-0.100;2023-07-09T13:49:09;1;0;
61760;PMS5003;47664;51.660;-0.100;2023-07-09T13:51:37;3;2;
61760;PMS5003;47664;51.660;-0.100;2023-07-09T13:54:06;1;0;
61760;PMS5003;47664;51.660;-0.100;2023-07-09T13:56:40;3;1;
61760;PMS5003;47664;51.660;-0.100;2023-07-09T13:59:11;1;1;
61760;PMS5003;47664;51.660;-0.100;2023-07-09T14:01:40;5;1;
61760;PMS5003;47664;51.660;-0.100;2023-07-09T14:04:08;3;1;
61760;PMS5003;47664;51.660;-0.100;2023-07-09T14:06:39;1;1;
61760;PMS5003;47664;51.660;-0.100;2023-07-09T14:09:08;3;2;
61760;PMS5003;47664;51.660;-0.100;2023-07-09T14:11:36;2;2;
61760;PMS5003;47664;51.660;-0.100;2023-07-09T14:14:11;1;1;
61760;PMS5003;47664;51.660;-0.100;2023-07-09T14:16:44;3;3;
61760;PMS5003;47664;51.660;-0.100;2023-07-09T14:19:12;4;2;
61760;PMS5003;47664;51.660;-0.100;2023-07-09T14:21:41;12;6;
61760;PMS5003;47664;51.660;-0.100;2023-07-09T14:24:15;0;0;
61760;PMS5003;47664;51.660;-0.100;2023-07-09T14:26:44;2;2;
61760;PMS5003;47664;51.660;-0.100;2023-07-09T14:29:12;3;3;
61760;PMS5003;47664;51.660;-0.100;2023-07-09T14:31:40;2;2;
61760;PMS5003;47664;51.660;-0.100;2023-07-09T14:34:16;4;1;
61760;PMS5003;47664;51.660;-0.100;2023-07-09T14:36:46;7;7;
61760;PMS5003;47664;51.660;-0.100;2023-07-09T14:39:14;4;2;
61760;PMS5003;47664;51.660;-0.100;2023-07-09T14:41:41;2;2;
61760;PMS5003;47664;51.660;-0.100;2023-07-09T14:44:15;3;3;
61760;PMS5003;47664;51.660;-0.100;2023-07-09T14:46:48;4;2;
61760;PMS5003;47664;51.660;-0.100;2023-07-09T14:49:15;7;4;
61760;PMS5003;47664;51.660;-0.100;2023-07-09T14:51:42;4;4;
61760;PMS5003;47664;51.660;-0.100;2023-07-09T14:54:14;4;2;
61760;PMS5003;47664;51.660;-0.100;2023-07-09T14:56:46;6;1;
61760;PMS5003;47664;51.660;-0.100;2023-07-09T14:59:13;5;3;
61760;PMS5003;47664;51.660;-0.100;2023-07-09T15:01:41;0;0;
61760;PMS5003;47664;51.660;-0.100;2023-07-09T15:04:26;6;3;
61760;PMS5003;47664;51.660;-0.100;2023-07-09T15:06:57;4;3;
61760;PMS5003;47664;51.660;-0.100;2023-07-09T15:09:25;3;1;
61760;PMS5003;47664;51.660;-0.100;2023-07-09T15:11:55;5;1;
61760;PMS5003;47664;51.660;-0.100;2023-07-09T15:14:24;4;2;
61760;PMS5003;47664;51.660;-0.100;2023-07-09T15:16:52;0;0;
61760;PMS5003;47664;51.660;-0.100;2023-07-09T15:19:20;1;1;
61760;PMS5003;47664;51.660;-0.100;2023-07-09T15:21:48;3;0;
61760;PMS5003;47664;51.660;-0.100;2023-07-09T15:24:19;1;1;
61760;PMS5003;47664;51.660;-0.100;2023-07-09T15:26:49;3;2;
61760;PMS5003;47664;51.660;-0.100;2023-07-09T15:29:19;3;1;
61760;PMS5003;47664;51.660;-0.100;2023-07-09T15:31:47;4;1;
61760;PMS5003;47664;51.660;-0.100;2023-07-09T15:34:13;0;0;
61760;PMS5003;47664;51.660;-0.100;2023-07-09T15:36:41;3;1;
61760;PMS5003;47664;51.660;-0.100;2023-07-09T15:39:10;1;1;
61760;PMS5003;47664;51.660;-0.100;2023-07-09T15:41:38;0;0;
61760;PMS5003;47664;51.660;-0.100;2023-07-09T15:44:09;1;1;
61760;PMS5003;47664;51.660;-0.100;2023-07-09T15:46:37;1;0;
61760;PMS5003;47664;51.660;-0.100;2023-07-09T15:49:06;2;2;
61760;PMS5003;47664;51.660;-0.100;2023-07-09T15:51:37;1;1;
61760;PMS5003;47664;51.660;-0.100;2023-07-09T15:54:09;0;0;
61760;PMS5003;47664;51.660;-0.100;2023-07-09T15:56:41;0;0;
61760;PMS5003;47664;51.660;-0.100;2023-07-09T15:59:11;1;0;
61760;PMS5003;47664;51.660;-0.100;2023-07-09T16:01:51;0;0;
61760;PMS5003;47664;51.660;-0.100;2023-07-09T16:04:19;0;0;
61760;PMS5003;47664;51.660;-0.100;2023-07-09T16:06:46;3;0;
61760;PMS5003;47664;51.660;-0.100;2023-07-09T16:09:12;1;0;
61760;PMS5003;47664;51.660;-0.100;2023-07-09T16:11:40;1;1;
61760;PMS5003;47664;51.660;-0.100;2023-07-09T16:14:17;1;1;
61760;PMS5003;47664;51.660;-0.100;2023-07-09T16:16:48;0;0;
61760;PMS5003;47664;51.660;-0.100;2023-07-09T16:19:16;1;1;
61760;PMS5003;47664;51.660;-0.100;2023-07-09T16:21:45;0;0;
61760;PMS5003;47664;51.660;-0.100;2023-07-09T16:24:14;6;3;
61760;PMS5003;47664;51.660;-0.100;2023-07-09T16:26:44;3;1;
61760;PMS5003;47664;51.660;-0.100;2023-07-09T16:29:14;4;3;
61760;PMS5003;47664;51.660;-0.100;2023-07-09T16:31:44;2;2;
61760;PMS5003;47664;51.660;-0.100;2023-07-09T16:34:10;1;1;
61760;PMS5003;47664;51.660;-0.100;2023-07-09T16:36:37;0;0;
61760;PMS5003;47664;51.660;-0.100;2023-07-09T16:39:38;4;1;
61760;PMS5003;47664;51.660;-0.100;2023-07-09T16:42:08;5;5;
61760;PMS5003;47664;51.660;-0.100;2023-07-09T16:44:37;3;3;
61760;PMS5003;47664;51.660;-0.100;2023-07-09T16:47:04;4;2;